sensor_id;sensor_type;location;lat;lon;timestamp;P1;durP1;ratioP1;P2;durP2;ratioP2
3066;SDS011;1544;48.834;9.194;2024-03-08T00:00:09;20.90;;;13.30;;
3066;SDS011;1544;48.834;9.194;2024-03-08T00:02:52;21.90;;;13.83;;
3066;SDS011;1544;48.834;9.194;2024-03-08T00:05:29;21.87;;;14.27;;
3066;SDS011;1544;48.834;9.194;2024-03-08T00:08:05;23.97;;;15.07;;
3066;SDS011;1544;48.834;9.194;2024-03-08T00:10:45;24.33;;;14.93;;
3066;SDS011;1544;48.834;9.194;2024-03-08T00:13:21;24.23;;;14.90;;
3066;SDS011;1544;48.834;9.194;2024-03-08T00:15:57;22.87;;;14.67;;
3066;SDS011;1544;48.834;9.194;2024-03-08T00:18:32;24.53;;;15.30;;
3066;SDS011;1544;48.834;9.194;2024-03-08T00:21:09;24.87;;;14.17;;
3066;SDS011;1544;48.834;9.194;2024-03-08T00:23:47;24.60;;;14.67;;
3066;SDS011;1544;48.834;9.194;2024-03-08T00:26:23;22.27;;;14.33;;
3066;SDS011;1544;48.834;9.194;2024-03-08T00:28:59;23.03;;;13.27;;
3066;SDS011;1544;48.834;9.194;2024-03-08T00:31:35;22.43;;;13.50;;
3066;SDS011;1544;48.834;9.194;2024-03-08T00:34:11;20.10;;;13.40;;
3066;SDS011;1544;48.834;9.194;2024-03-08T00:36:47;21.37;;;13.10;;
3066;SDS011;1544;48.834;9.194;2024-03-08T00:39:24;19.90;;;13.03;;
3066;SDS011;1544;48.834;9.194;2024-03-08T00:42:00;22.90;;;13.63;;
3066;SDS011;1544;48.834;9.194;2024-03-08T00:44:36;19.00;;;12.47;;
3066;SDS011;1544;48.834;9.194;2024-03-08T00:47:13;20.97;;;13.77;;
3066;SDS011;1544;48.834;9.194;2024-03-08T00:49:49;22.93;;;13.97;;
3066;SDS011;1544;48.834;9.194;2024-03-08T00:52:26;21.80;;;13.90;;
3066;SDS011;1544;48.834;9.194;2024-03-08T00:55:02;24.27;;;14.10;;
3066;SDS011;1544;48.834;9.194;2024-03-08T00:57:39;21.07;;;13.57;;
3066;SDS011;1544;48.834;9.194;2024-03-08T01:00:15;23.20;;;15.07;;
3066;SDS011;1544;48.834;9.194;2024-03-08T01:02:52;23.73;;;15.00;;
3066;SDS011;1544;48.834;9.194;2024-03-08T01:05:28;24.97;;;14.77;;
3066;SDS011;1544;48.834;9.194;2024-03-08T01:08:04;27.13;;;15.40;;
3066;SDS011;1544;48.834;9.194;2024-03-08T01:10:40;23.47;;;14.27;;
3066;SDS011;1544;48.834;9.194;2024-03-08T01:13:16;22.80;;;13.30;;
3066;SDS011;1544;48.834;9.194;2024-03-08T01:15:52;25.50;;;15.90;;
3066;SDS011;1544;48.834;9.194;2024-03-08T01:18:29;21.70;;;14.13;;
3066;SDS011;1544;48.834;9.194;2024-03-08T01:21:05;19.90;;;13.63;;
3066;SDS011;1544;48.834;9.194;2024-03-08T01:23:41;21.70;;;12.80;;
3066;SDS011;1544;48.834;9.194;2024-03-08T01:26:17;24.60;;;13.63;;
3066;SDS011;1544;48.834;9.194;2024-03-08T01:28:53;24.10;;;13.77;;
3066;SDS011;1544;48.834;9.194;2024-03-08T01:31:30;23.40;;;13.57;;
3066;SDS011;1544;48.834;9.194;2024-03-08T01:34:06;25.33;;;14.20;;
3066;SDS011;1544;48.834;9.194;2024-03-08T01:36:42;23.37;;;14.17;;
3066;SDS011;1544;48.834;9.194;2024-03-08T01:39:18;23.53;;;13.77;;
3066;SDS011;1544;48.834;9.194;2024-03-08T01:41:54;22.97;;;14.47;;
3066;SDS011;1544;48.834;9.194;2024-03-08T01:44:30;22.10;;;12.10;;
3066;SDS011;1544;48.834;9.194;2024-03-08T01:47:06;21.77;;;13.53;;
3066;SDS011;1544;48.834;9.194;2024-03-08T01:49:43;22.50;;;14.27;;
3066;SDS011;1544;48.834;9.194;2024-03-08T01:52:19;21.53;;;13.40;;
3066;SDS011;1544;48.834;9.194;2024-03-08T01:54:59;28.97;;;16.43;;
3066;SDS011;1544;48.834;9.194;2024-03-08T01:57:39;22.30;;;14.03;;
3066;SDS011;1544;48.834;9.194;2024-03-08T02:00:15;21.30;;;12.63;;
3066;SDS011;1544;48.834;9.194;2024-03-08T02:02:53;25.83;;;14.17;;
3066;SDS011;1544;48.834;9.194;2024-03-08T02:05:29;23.17;;;14.60;;
3066;SDS011;1544;48.834;9.194;2024-03-08T02:08:06;23.20;;;13.70;;
3066;SDS011;1544;48.834;9.194;2024-03-08T02:10:47;22.83;;;13.33;;
3066;SDS011;1544;48.834;9.194;2024-03-08T02:13:24;25.60;;;13.57;;
3066;SDS011;1544;48.834;9.194;2024-03-08T02:16:01;25.40;;;13.97;;
3066;SDS011;1544;48.834;9.194;2024-03-08T02:18:37;25.20;;;14.30;;
3066;SDS011;1544;48.834;9.194;2024-03-08T02:21:16;24.10;;;13.60;;
3066;SDS011;1544;48.834;9.194;2024-03-08T02:24:16;20.20;;;12.37;;
3066;SDS011;1544;48.834;9.194;2024-03-08T02:26:52;20.47;;;12.00;;
3066;SDS011;1544;48.834;9.194;2024-03-08T02:29:28;21.10;;;13.10;;
3066;SDS011;1544;48.834;9.194;2024-03-08T02:32:06;21.17;;;12.77;;
3066;SDS011;1544;48.834;9.194;2024-03-08T02:34:42;23.07;;;13.00;;
3066;SDS011;1544;48.834;9.194;2024-03-08T02:37:18;21.40;;;14.20;;
3066;SDS011;1544;48.834;9.194;2024-03-08T02:39:55;23.83;;;14.03;;
3066;SDS011;1544;48.834;9.194;2024-03-08T02:42:31;22.00;;;12.87;;
3066;SDS011;1544;48.834;9.194;2024-03-08T02:45:08;25.97;;;14.63;;
3066;SDS011;1544;48.834;9.194;2024-03-08T02:47:45;22.43;;;12.60;;
3066;SDS011;1544;48.834;9.194;2024-03-08T02:50:21;24.00;;;13.63;;
3066;SDS011;1544;48.834;9.194;2024-03-08T02:52:57;24.13;;;13.70;;
3066;SDS011;1544;48.834;9.194;2024-03-08T02:55:33;18.73;;;12.43;;
3066;SDS011;1544;48.834;9.194;2024-03-08T02:58:11;21.73;;;13.37;;
3066;SDS011;1544;48.834;9.194;2024-03-08T03:00:47;23.73;;;13.87;;
3066;SDS011;1544;48.834;9.194;2024-03-08T03:03:23;23.50;;;13.00;;
3066;SDS011;1544;48.834;9.194;2024-03-08T03:05:58;18.93;;;12.07;;
3066;SDS011;1544;48.834;9.194;2024-03-08T03:08:36;23.43;;;13.50;;
3066;SDS011;1544;48.834;9.194;2024-03-08T03:11:12;21.27;;;13.50;;
3066;SDS011;1544;48.834;9.194;2024-03-08T03:13:49;20.57;;;12.27;;
3066;SDS011;1544;48.834;9.194;2024-03-08T03:16:25;18.03;;;12.40;;
3066;SDS011;1544;48.834;9.194;2024-03-08T03:19:01;20.80;;;12.60;;
3066;SDS011;1544;48.834;9.194;2024-03-08T03:21:40;23.17;;;12.73;;
3066;SDS011;1544;48.834;9.194;2024-03-08T03:24:18;20.97;;;12.30;;
3066;SDS011;1544;48.834;9.194;2024-03-08T03:26:56;20.90;;;12.97;;
3066;SDS011;1544;48.834;9.194;2024-03-08T03:29:32;23.97;;;12.90;;
3066;SDS011;1544;48.834;9.194;2024-03-08T03:32:08;22.63;;;13.50;;
3066;SDS011;1544;48.834;9.194;2024-03-08T03:34:45;17.50;;;10.93;;
3066;SDS011;1544;48.834;9.194;2024-03-08T03:37:20;21.47;;;12.60;;
3066;SDS011;1544;48.834;9.194;2024-03-08T03:39:56;23.23;;;13.27;;
3066;SDS011;1544;48.834;9.194;2024-03-08T03:42:32;19.13;;;12.50;;
3066;SDS011;1544;48.834;9.194;2024-03-08T03:45:09;21.53;;;12.27;;
3066;SDS011;1544;48.834;9.194;2024-03-08T03:47:46;22.23;;;11.87;;
3066;SDS011;1544;48.834;9.194;2024-03-08T03:50:22;20.40;;;12.20;;
3066;SDS011;1544;48.834;9.194;2024-03-08T03:52:58;16.87;;;11.50;;
3066;SDS011;1544;48.834;9.194;2024-03-08T03:55:34;21.00;;;13.13;;
3066;SDS011;1544;48.834;9.194;2024-03-08T03:58:13;22.93;;;13.20;;
3066;SDS011;1544;48.834;9.194;2024-03-08T04:00:49;24.80;;;12.83;;
3066;SDS011;1544;48.834;9.194;2024-03-08T04:03:25;20.87;;;12.67;;
3066;SDS011;1544;48.834;9.194;2024-03-08T04:06:01;19.90;;;12.73;;
3066;SDS011;1544;48.834;9.194;2024-03-08T04:08:40;22.27;;;12.27;;
3066;SDS011;1544;48.834;9.194;2024-03-08T04:11:16;21.70;;;12.80;;
3066;SDS011;1544;48.834;9.194;2024-03-08T04:13:52;24.90;;;12.33;;
3066;SDS011;1544;48.834;9.194;2024-03-08T04:16:29;22.07;;;13.07;;
3066;SDS011;1544;48.834;9.194;2024-03-08T04:19:05;20.60;;;13.17;;
3066;SDS011;1544;48.834;9.194;2024-03-08T04:21:41;18.33;;;12.40;;
3066;SDS011;1544;48.834;9.194;2024-03-08T04:24:17;21.77;;;12.63;;
3066;SDS011;1544;48.834;9.194;2024-03-08T04:26:53;21.07;;;13.00;;
3066;SDS011;1544;48.834;9.194;2024-03-08T04:29:30;18.03;;;10.63;;
3066;SDS011;1544;48.834;9.194;2024-03-08T04:32:06;23.60;;;12.77;;
3066;SDS011;1544;48.834;9.194;2024-03-08T04:34:43;19.00;;;13.30;;
3066;SDS011;1544;48.834;9.194;2024-03-08T04:37:21;19.43;;;12.63;;
3066;SDS011;1544;48.834;9.194;2024-03-08T04:39:57;19.33;;;12.70;;
3066;SDS011;1544;48.834;9.194;2024-03-08T04:42:34;19.80;;;13.27;;
3066;SDS011;1544;48.834;9.194;2024-03-08T04:45:13;21.03;;;12.50;;
3066;SDS011;1544;48.834;9.194;2024-03-08T04:47:49;17.17;;;11.67;;
3066;SDS011;1544;48.834;9.194;2024-03-08T04:50:28;20.47;;;11.67;;
3066;SDS011;1544;48.834;9.194;2024-03-08T04:53:04;22.90;;;12.43;;
3066;SDS011;1544;48.834;9.194;2024-03-08T04:55:43;23.80;;;14.37;;
3066;SDS011;1544;48.834;9.194;2024-03-08T04:58:19;25.00;;;12.47;;
3066;SDS011;1544;48.834;9.194;2024-03-08T05:00:56;24.50;;;12.50;;
3066;SDS011;1544;48.834;9.194;2024-03-08T05:03:32;22.80;;;13.70;;
3066;SDS011;1544;48.834;9.194;2024-03-08T05:06:08;24.20;;;13.60;;
3066;SDS011;1544;48.834;9.194;2024-03-08T05:08:44;28.30;;;14.60;;
3066;SDS011;1544;48.834;9.194;2024-03-08T05:11:21;21.93;;;12.07;;
3066;SDS011;1544;48.834;9.194;2024-03-08T05:13:58;21.70;;;13.67;;
3066;SDS011;1544;48.834;9.194;2024-03-08T05:16:34;23.77;;;14.23;;
3066;SDS011;1544;48.834;9.194;2024-03-08T05:19:10;25.80;;;14.67;;
3066;SDS011;1544;48.834;9.194;2024-03-08T05:21:47;24.97;;;15.13;;
3066;SDS011;1544;48.834;9.194;2024-03-08T05:24:24;25.60;;;14.43;;
3066;SDS011;1544;48.834;9.194;2024-03-08T05:27:00;21.60;;;13.40;;
3066;SDS011;1544;48.834;9.194;2024-03-08T05:29:36;25.50;;;14.23;;
3066;SDS011;1544;48.834;9.194;2024-03-08T05:32:13;23.60;;;14.80;;
3066;SDS011;1544;48.834;9.194;2024-03-08T05:34:49;23.57;;;14.73;;
3066;SDS011;1544;48.834;9.194;2024-03-08T05:37:25;23.67;;;14.80;;
3066;SDS011;1544;48.834;9.194;2024-03-08T05:40:01;27.23;;;14.37;;
3066;SDS011;1544;48.834;9.194;2024-03-08T05:42:38;22.20;;;13.33;;
3066;SDS011;1544;48.834;9.194;2024-03-08T05:45:14;22.10;;;14.00;;
3066;SDS011;1544;48.834;9.194;2024-03-08T05:47:50;23.93;;;14.50;;
3066;SDS011;1544;48.834;9.194;2024-03-08T05:50:27;20.20;;;12.37;;
3066;SDS011;1544;48.834;9.194;2024-03-08T05:53:04;25.53;;;13.53;;
3066;SDS011;1544;48.834;9.194;2024-03-08T05:55:42;24.70;;;13.60;;
3066;SDS011;1544;48.834;9.194;2024-03-08T05:58:19;24.37;;;14.17;;
3066;SDS011;1544;48.834;9.194;2024-03-08T06:00:55;24.87;;;14.83;;
3066;SDS011;1544;48.834;9.194;2024-03-08T06:03:31;23.50;;;14.43;;
3066;SDS011;1544;48.834;9.194;2024-03-08T06:06:07;24.60;;;14.13;;
3066;SDS011;1544;48.834;9.194;2024-03-08T06:08:43;18.47;;;11.77;;
3066;SDS011;1544;48.834;9.194;2024-03-08T06:11:19;22.70;;;12.73;;
3066;SDS011;1544;48.834;9.194;2024-03-08T06:13:56;22.03;;;12.77;;
3066;SDS011;1544;48.834;9.194;2024-03-08T06:16:35;24.47;;;13.20;;
3066;SDS011;1544;48.834;9.194;2024-03-08T06:19:11;24.60;;;13.57;;
3066;SDS011;1544;48.834;9.194;2024-03-08T06:21:48;22.20;;;13.37;;
3066;SDS011;1544;48.834;9.194;2024-03-08T06:24:24;22.40;;;14.07;;
3066;SDS011;1544;48.834;9.194;2024-03-08T06:27:00;24.63;;;14.00;;
3066;SDS011;1544;48.834;9.194;2024-03-08T06:29:36;22.40;;;14.50;;
3066;SDS011;1544;48.834;9.194;2024-03-08T06:32:12;22.80;;;14.33;;
3066;SDS011;1544;48.834;9.194;2024-03-08T06:34:50;25.67;;;14.63;;
3066;SDS011;1544;48.834;9.194;2024-03-08T06:37:26;24.03;;;13.87;;
3066;SDS011;1544;48.834;9.194;2024-03-08T06:40:03;23.17;;;14.27;;
3066;SDS011;1544;48.834;9.194;2024-03-08T06:42:39;25.90;;;15.40;;
3066;SDS011;1544;48.834;9.194;2024-03-08T06:45:16;23.50;;;14.60;;
3066;SDS011;1544;48.834;9.194;2024-03-08T06:47:56;26.50;;;15.10;;
3066;SDS011;1544;48.834;9.194;2024-03-08T06:50:32;27.60;;;15.77;;
3066;SDS011;1544;48.834;9.194;2024-03-08T06:53:08;23.43;;;13.70;;
3066;SDS011;1544;48.834;9.194;2024-03-08T06:55:44;24.70;;;13.77;;
3066;SDS011;1544;48.834;9.194;2024-03-08T06:58:20;25.53;;;14.07;;
3066;SDS011;1544;48.834;9.194;2024-03-08T07:00:56;25.00;;;14.63;;
3066;SDS011;1544;48.834;9.194;2024-03-08T07:03:36;22.00;;;13.50;;
3066;SDS011;1544;48.834;9.194;2024-03-08T07:06:11;23.70;;;14.80;;
3066;SDS011;1544;48.834;9.194;2024-03-08T07:08:49;21.40;;;14.03;;
3066;SDS011;1544;48.834;9.194;2024-03-08T07:11:25;23.90;;;14.43;;
3066;SDS011;1544;48.834;9.194;2024-03-08T07:14:01;22.50;;;13.40;;
3066;SDS011;1544;48.834;9.194;2024-03-08T07:16:40;21.10;;;13.10;;
3066;SDS011;1544;48.834;9.194;2024-03-08T07:19:16;20.97;;;13.33;;
3066;SDS011;1544;48.834;9.194;2024-03-08T07:21:53;22.37;;;13.20;;
3066;SDS011;1544;48.834;9.194;2024-03-08T07:24:30;19.93;;;12.53;;
3066;SDS011;1544;48.834;9.194;2024-03-08T07:27:24;18.30;;;12.80;;
3066;SDS011;1544;48.834;9.194;2024-03-08T07:30:00;20.13;;;13.53;;
3066;SDS011;1544;48.834;9.194;2024-03-08T07:32:40;19.20;;;13.50;;
3066;SDS011;1544;48.834;9.194;2024-03-08T07:35:16;21.80;;;13.33;;
3066;SDS011;1544;48.834;9.194;2024-03-08T07:37:54;24.10;;;13.67;;
3066;SDS011;1544;48.834;9.194;2024-03-08T07:40:30;22.73;;;14.03;;
3066;SDS011;1544;48.834;9.194;2024-03-08T07:43:10;20.07;;;13.27;;
3066;SDS011;1544;48.834;9.194;2024-03-08T07:45:46;17.93;;;12.03;;
3066;SDS011;1544;48.834;9.194;2024-03-08T07:48:22;21.07;;;12.80;;
3066;SDS011;1544;48.834;9.194;2024-03-08T07:50:58;20.60;;;13.33;;
3066;SDS011;1544;48.834;9.194;2024-03-08T07:53:34;21.47;;;12.97;;
3066;SDS011;1544;48.834;9.194;2024-03-08T07:56:10;21.43;;;12.53;;
3066;SDS011;1544;48.834;9.194;2024-03-08T07:58:48;23.13;;;13.30;;
3066;SDS011;1544;48.834;9.194;2024-03-08T08:01:25;23.13;;;14.53;;
3066;SDS011;1544;48.834;9.194;2024-03-08T08:04:01;20.23;;;12.27;;
3066;SDS011;1544;48.834;9.194;2024-03-08T08:06:40;20.80;;;12.87;;
3066;SDS011;1544;48.834;9.194;2024-03-08T08:09:17;20.73;;;13.10;;
3066;SDS011;1544;48.834;9.194;2024-03-08T08:12:03;22.93;;;13.30;;
3066;SDS011;1544;48.834;9.194;2024-03-08T08:14:40;20.50;;;13.33;;
3066;SDS011;1544;48.834;9.194;2024-03-08T08:17:16;22.60;;;14.60;;
3066;SDS011;1544;48.834;9.194;2024-03-08T08:19:52;21.70;;;12.50;;
3066;SDS011;1544;48.834;9.194;2024-03-08T08:22:28;18.77;;;11.87;;
3066;SDS011;1544;48.834;9.194;2024-03-08T08:25:04;18.30;;;12.07;;
3066;SDS011;1544;48.834;9.194;2024-03-08T08:27:40;20.67;;;12.10;;
3066;SDS011;1544;48.834;9.194;2024-03-08T08:30:18;19.20;;;13.17;;
3066;SDS011;1544;48.834;9.194;2024-03-08T08:32:54;23.07;;;13.80;;
3066;SDS011;1544;48.834;9.194;2024-03-08T08:35:31;23.00;;;14.00;;
3066;SDS011;1544;48.834;9.194;2024-03-08T08:38:08;18.03;;;12.13;;
3066;SDS011;1544;48.834;9.194;2024-03-08T08:40:44;21.87;;;14.00;;
3066;SDS011;1544;48.834;9.194;2024-03-08T08:43:20;18.97;;;12.33;;
3066;SDS011;1544;48.834;9.194;2024-03-08T08:46:00;19.90;;;12.43;;
3066;SDS011;1544;48.834;9.194;2024-03-08T08:48:36;19.67;;;11.07;;
3066;SDS011;1544;48.834;9.194;2024-03-08T08:51:12;20.43;;;11.90;;
3066;SDS011;1544;48.834;9.194;2024-03-08T08:53:48;18.10;;;11.30;;
3066;SDS011;1544;48.834;9.194;2024-03-08T08:56:24;18.40;;;12.40;;
3066;SDS011;1544;48.834;9.194;2024-03-08T08:59:01;22.70;;;13.43;;
3066;SDS011;1544;48.834;9.194;2024-03-08T09:01:37;20.43;;;11.93;;
3066;SDS011;1544;48.834;9.194;2024-03-08T09:04:13;17.37;;;10.77;;
3066;SDS011;1544;48.834;9.194;2024-03-08T09:06:49;17.10;;;10.77;;
3066;SDS011;1544;48.834;9.194;2024-03-08T09:09:25;18.90;;;11.73;;
3066;SDS011;1544;48.834;9.194;2024-03-08T09:12:01;19.33;;;12.20;;
3066;SDS011;1544;48.834;9.194;2024-03-08T09:14:37;20.63;;;12.80;;
3066;SDS011;1544;48.834;9.194;2024-03-08T09:17:13;17.10;;;11.70;;
3066;SDS011;1544;48.834;9.194;2024-03-08T09:19:52;19.20;;;11.63;;
3066;SDS011;1544;48.834;9.194;2024-03-08T09:22:29;19.73;;;12.33;;
3066;SDS011;1544;48.834;9.194;2024-03-08T09:25:05;15.27;;;10.33;;
3066;SDS011;1544;48.834;9.194;2024-03-08T09:27:42;19.63;;;11.90;;
3066;SDS011;1544;48.834;9.194;2024-03-08T09:30:18;20.57;;;12.77;;
3066;SDS011;1544;48.834;9.194;2024-03-08T09:32:56;17.87;;;11.73;;
3066;SDS011;1544;48.834;9.194;2024-03-08T09:35:33;21.90;;;12.10;;
3066;SDS011;1544;48.834;9.194;2024-03-08T09:38:10;19.83;;;12.70;;
3066;SDS011;1544;48.834;9.194;2024-03-08T09:40:48;19.20;;;12.37;;
3066;SDS011;1544;48.834;9.194;2024-03-08T09:43:24;19.97;;;12.00;;
3066;SDS011;1544;48.834;9.194;2024-03-08T09:46:00;17.03;;;11.83;;
3066;SDS011;1544;48.834;9.194;2024-03-08T09:48:37;17.90;;;11.63;;
3066;SDS011;1544;48.834;9.194;2024-03-08T09:51:15;19.30;;;11.87;;
3066;SDS011;1544;48.834;9.194;2024-03-08T09:53:51;18.97;;;11.87;;
3066;SDS011;1544;48.834;9.194;2024-03-08T09:56:28;19.13;;;12.23;;
3066;SDS011;1544;48.834;9.194;2024-03-08T09:59:05;19.60;;;11.27;;
3066;SDS011;1544;48.834;9.194;2024-03-08T10:02:03;19.40;;;12.90;;
3066;SDS011;1544;48.834;9.194;2024-03-08T10:04:40;15.17;;;10.83;;
3066;SDS011;1544;48.834;9.194;2024-03-08T10:07:17;20.50;;;13.07;;
3066;SDS011;1544;48.834;9.194;2024-03-08T10:09:54;20.13;;;11.93;;
3066;SDS011;1544;48.834;9.194;2024-03-08T10:12:30;16.50;;;11.60;;
3066;SDS011;1544;48.834;9.194;2024-03-08T10:15:07;16.73;;;11.50;;
3066;SDS011;1544;48.834;9.194;2024-03-08T10:17:44;15.57;;;10.77;;
3066;SDS011;1544;48.834;9.194;2024-03-08T10:20:20;20.03;;;12.33;;
3066;SDS011;1544;48.834;9.194;2024-03-08T10:22:56;20.67;;;13.60;;
3066;SDS011;1544;48.834;9.194;2024-03-08T10:25:45;22.07;;;11.97;;
3066;SDS011;1544;48.834;9.194;2024-03-08T10:28:22;16.80;;;11.87;;
3066;SDS011;1544;48.834;9.194;2024-03-08T10:31:00;15.60;;;11.40;;
3066;SDS011;1544;48.834;9.194;2024-03-08T10:33:36;19.73;;;13.10;;
3066;SDS011;1544;48.834;9.194;2024-03-08T10:36:15;15.80;;;11.40;;
3066;SDS011;1544;48.834;9.194;2024-03-08T10:38:51;19.17;;;11.77;;
3066;SDS011;1544;48.834;9.194;2024-03-08T10:41:28;18.20;;;11.10;;
3066;SDS011;1544;48.834;9.194;2024-03-08T10:44:15;18.90;;;11.53;;
3066;SDS011;1544;48.834;9.194;2024-03-08T10:47:02;16.07;;;11.23;;
3066;SDS011;1544;48.834;9.194;2024-03-08T10:49:50;16.53;;;10.50;;
3066;SDS011;1544;48.834;9.194;2024-03-08T10:52:44;16.90;;;11.77;;
3066;SDS011;1544;48.834;9.194;2024-03-08T10:55:24;19.53;;;11.90;;
3066;SDS011;1544;48.834;9.194;2024-03-08T10:58:03;17.97;;;10.90;;
3066;SDS011;1544;48.834;9.194;2024-03-08T11:00:39;16.27;;;10.97;;
3066;SDS011;1544;48.834;9.194;2024-03-08T11:06:30;19.40;;;11.60;;
3066;SDS011;1544;48.834;9.194;2024-03-08T11:12:21;17.57;;;12.50;;
3066;SDS011;1544;48.834;9.194;2024-03-08T11:15:11;16.40;;;11.80;;
3066;SDS011;1544;48.834;9.194;2024-03-08T11:17:54;17.40;;;11.60;;
3066;SDS011;1544;48.834;9.194;2024-03-08T11:20:35;18.10;;;12.07;;
3066;SDS011;1544;48.834;9.194;2024-03-08T11:23:12;17.10;;;11.53;;
3066;SDS011;1544;48.834;9.194;2024-03-08T11:25:48;19.17;;;12.90;;
3066;SDS011;1544;48.834;9.194;2024-03-08T11:28:28;16.03;;;11.43;;
3066;SDS011;1544;48.834;9.194;2024-03-08T11:33:45;19.60;;;12.83;;
3066;SDS011;1544;48.834;9.194;2024-03-08T11:36:23;17.53;;;12.93;;
3066;SDS011;1544;48.834;9.194;2024-03-08T11:39:00;17.57;;;11.90;;
3066;SDS011;1544;48.834;9.194;2024-03-08T11:41:44;19.10;;;12.30;;
3066;SDS011;1544;48.834;9.194;2024-03-08T11:44:21;20.37;;;12.93;;
3066;SDS011;1544;48.834;9.194;2024-03-08T11:47:03;15.77;;;11.40;;
3066;SDS011;1544;48.834;9.194;2024-03-08T11:49:45;17.80;;;11.57;;
3066;SDS011;1544;48.834;9.194;2024-03-08T11:52:23;18.70;;;13.37;;
3066;SDS011;1544;48.834;9.194;2024-03-08T11:55:00;18.40;;;12.50;;
3066;SDS011;1544;48.834;9.194;2024-03-08T11:57:36;20.50;;;13.63;;
3066;SDS011;1544;48.834;9.194;2024-03-08T12:00:16;20.13;;;12.27;;
3066;SDS011;1544;48.834;9.194;2024-03-08T12:03:03;20.70;;;12.10;;
3066;SDS011;1544;48.834;9.194;2024-03-08T12:05:41;19.00;;;13.07;;
3066;SDS011;1544;48.834;9.194;2024-03-08T12:08:18;20.53;;;12.73;;
3066;SDS011;1544;48.834;9.194;2024-03-08T12:10:54;21.97;;;12.07;;
3066;SDS011;1544;48.834;9.194;2024-03-08T12:13:34;23.43;;;12.87;;
3066;SDS011;1544;48.834;9.194;2024-03-08T12:16:10;18.97;;;13.27;;
3066;SDS011;1544;48.834;9.194;2024-03-08T12:18:46;18.57;;;13.00;;
3066;SDS011;1544;48.834;9.194;2024-03-08T12:21:25;20.83;;;12.87;;
3066;SDS011;1544;48.834;9.194;2024-03-08T12:24:08;18.90;;;13.10;;
3066;SDS011;1544;48.834;9.194;2024-03-08T12:26:45;21.00;;;13.23;;
3066;SDS011;1544;48.834;9.194;2024-03-08T12:29:24;19.03;;;13.20;;
3066;SDS011;1544;48.834;9.194;2024-03-08T12:32:02;17.30;;;12.20;;
3066;SDS011;1544;48.834;9.194;2024-03-08T12:34:40;17.20;;;12.60;;
3066;SDS011;1544;48.834;9.194;2024-03-08T12:37:16;15.70;;;12.00;;
3066;SDS011;1544;48.834;9.194;2024-03-08T12:39:54;18.23;;;13.43;;
3066;SDS011;1544;48.834;9.194;2024-03-08T12:42:31;20.93;;;13.50;;
3066;SDS011;1544;48.834;9.194;2024-03-08T12:45:07;20.37;;;13.27;;
3066;SDS011;1544;48.834;9.194;2024-03-08T12:47:45;16.60;;;12.17;;
3066;SDS011;1544;48.834;9.194;2024-03-08T12:50:22;20.57;;;13.20;;
3066;SDS011;1544;48.834;9.194;2024-03-08T12:53:00;20.40;;;13.33;;
3066;SDS011;1544;48.834;9.194;2024-03-08T12:55:39;21.70;;;14.47;;
3066;SDS011;1544;48.834;9.194;2024-03-08T12:58:15;18.23;;;13.00;;
3066;SDS011;1544;48.834;9.194;2024-03-08T13:00:52;19.30;;;13.73;;
3066;SDS011;1544;48.834;9.194;2024-03-08T13:03:28;17.47;;;11.97;;
3066;SDS011;1544;48.834;9.194;2024-03-08T13:06:04;15.20;;;12.30;;
3066;SDS011;1544;48.834;9.194;2024-03-08T13:08:43;16.40;;;13.00;;
3066;SDS011;1544;48.834;9.194;2024-03-08T13:11:19;17.77;;;12.60;;
3066;SDS011;1544;48.834;9.194;2024-03-08T13:13:56;19.00;;;12.50;;
3066;SDS011;1544;48.834;9.194;2024-03-08T13:16:35;19.10;;;13.17;;
3066;SDS011;1544;48.834;9.194;2024-03-08T13:19:11;16.57;;;12.57;;
3066;SDS011;1544;48.834;9.194;2024-03-08T13:21:47;16.70;;;13.03;;
3066;SDS011;1544;48.834;9.194;2024-03-08T13:24:24;17.23;;;11.87;;
3066;SDS011;1544;48.834;9.194;2024-03-08T13:27:00;18.33;;;13.20;;
3066;SDS011;1544;48.834;9.194;2024-03-08T13:29:37;15.10;;;12.63;;
3066;SDS011;1544;48.834;9.194;2024-03-08T13:32:13;15.60;;;12.97;;
3066;SDS011;1544;48.834;9.194;2024-03-08T13:34:52;18.93;;;14.17;;
3066;SDS011;1544;48.834;9.194;2024-03-08T13:37:29;18.13;;;13.87;;
3066;SDS011;1544;48.834;9.194;2024-03-08T13:40:05;18.40;;;13.97;;
3066;SDS011;1544;48.834;9.194;2024-03-08T13:42:46;19.47;;;13.17;;
3066;SDS011;1544;48.834;9.194;2024-03-08T13:45:24;19.47;;;13.20;;
3066;SDS011;1544;48.834;9.194;2024-03-08T13:48:00;17.40;;;12.63;;
3066;SDS011;1544;48.834;9.194;2024-03-08T13:50:39;18.13;;;12.97;;
3066;SDS011;1544;48.834;9.194;2024-03-08T13:53:15;16.90;;;13.40;;
3066;SDS011;1544;48.834;9.194;2024-03-08T13:55:51;17.90;;;13.30;;
3066;SDS011;1544;48.834;9.194;2024-03-08T13:58:27;15.77;;;12.27;;
3066;SDS011;1544;48.834;9.194;2024-03-08T14:01:03;18.90;;;13.50;;
3066;SDS011;1544;48.834;9.194;2024-03-08T14:03:41;17.20;;;11.60;;
3066;SDS011;1544;48.834;9.194;2024-03-08T14:06:17;15.90;;;12.03;;
3066;SDS011;1544;48.834;9.194;2024-03-08T14:08:58;15.60;;;12.10;;
3066;SDS011;1544;48.834;9.194;2024-03-08T14:11:33;16.40;;;11.80;;
3066;SDS011;1544;48.834;9.194;2024-03-08T14:14:10;18.67;;;12.33;;
3066;SDS011;1544;48.834;9.194;2024-03-08T14:16:47;15.77;;;12.53;;
3066;SDS011;1544;48.834;9.194;2024-03-08T14:19:24;17.80;;;12.87;;
3066;SDS011;1544;48.834;9.194;2024-03-08T14:22:01;17.07;;;12.17;;
3066;SDS011;1544;48.834;9.194;2024-03-08T14:24:39;15.17;;;10.90;;
3066;SDS011;1544;48.834;9.194;2024-03-08T14:27:17;14.77;;;12.40;;
3066;SDS011;1544;48.834;9.194;2024-03-08T14:29:54;17.97;;;12.43;;
3066;SDS011;1544;48.834;9.194;2024-03-08T14:32:30;17.47;;;12.47;;
3066;SDS011;1544;48.834;9.194;2024-03-08T14:35:06;15.10;;;12.07;;
3066;SDS011;1544;48.834;9.194;2024-03-08T14:37:43;15.20;;;11.50;;
3066;SDS011;1544;48.834;9.194;2024-03-08T14:40:19;16.43;;;12.63;;
3066;SDS011;1544;48.834;9.194;2024-03-08T14:42:59;15.40;;;11.60;;
3066;SDS011;1544;48.834;9.194;2024-03-08T14:45:38;14.70;;;11.87;;
3066;SDS011;1544;48.834;9.194;2024-03-08T14:48:14;16.10;;;11.40;;
3066;SDS011;1544;48.834;9.194;2024-03-08T14:50:51;15.50;;;11.80;;
3066;SDS011;1544;48.834;9.194;2024-03-08T14:53:27;15.20;;;11.80;;
3066;SDS011;1544;48.834;9.194;2024-03-08T14:56:04;17.03;;;13.83;;
3066;SDS011;1544;48.834;9.194;2024-03-08T14:58:40;17.50;;;13.80;;
3066;SDS011;1544;48.834;9.194;2024-03-08T15:01:17;16.57;;;13.07;;
3066;SDS011;1544;48.834;9.194;2024-03-08T15:04:00;17.53;;;13.20;;
3066;SDS011;1544;48.834;9.194;2024-03-08T15:06:43;17.37;;;12.90;;
3066;SDS011;1544;48.834;9.194;2024-03-08T15:09:26;19.40;;;13.07;;
3066;SDS011;1544;48.834;9.194;2024-03-08T15:12:02;19.93;;;13.70;;
3066;SDS011;1544;48.834;9.194;2024-03-08T15:14:42;14.70;;;12.43;;
3066;SDS011;1544;48.834;9.194;2024-03-08T15:17:19;18.13;;;12.23;;
3066;SDS011;1544;48.834;9.194;2024-03-08T15:19:56;17.20;;;12.10;;
3066;SDS011;1544;48.834;9.194;2024-03-08T15:22:32;16.37;;;13.10;;
3066;SDS011;1544;48.834;9.194;2024-03-08T15:25:10;15.80;;;12.10;;
3066;SDS011;1544;48.834;9.194;2024-03-08T15:27:50;16.90;;;13.63;;
3066;SDS011;1544;48.834;9.194;2024-03-08T15:30:26;17.17;;;12.80;;
3066;SDS011;1544;48.834;9.194;2024-03-08T15:33:04;15.50;;;13.00;;
3066;SDS011;1544;48.834;9.194;2024-03-08T15:35:41;16.50;;;11.67;;
3066;SDS011;1544;48.834;9.194;2024-03-08T15:38:22;15.57;;;11.70;;
3066;SDS011;1544;48.834;9.194;2024-03-08T15:41:00;16.40;;;12.20;;
3066;SDS011;1544;48.834;9.194;2024-03-08T15:43:36;15.50;;;12.23;;
3066;SDS011;1544;48.834;9.194;2024-03-08T15:46:12;14.53;;;11.60;;
3066;SDS011;1544;48.834;9.194;2024-03-08T15:48:48;15.17;;;12.93;;
3066;SDS011;1544;48.834;9.194;2024-03-08T15:51:24;16.97;;;13.33;;
3066;SDS011;1544;48.834;9.194;2024-03-08T15:54:01;18.10;;;12.40;;
3066;SDS011;1544;48.834;9.194;2024-03-08T15:56:39;16.90;;;14.17;;